Time;durP1;ratioP1;P1;durP2;ratioP2;P2;SDS_P1;SDS_P2;PMS_P1;PMS_P2;Temp;Humidity;BMP_temperature;BMP_pressure;BME280_temperature;BME280_humidity;BME280_pressure;Samples;Min_cycle;Max_cycle;Signal;HPM_P1;HPM_P2
2022/09/16 00:01:13;;;;;;;3.75;1.10;;;15.10;99.90;;;;;;5033167;28;20485;-85
2022/09/16 00:03:39;;;;;;;5.95;1.40;;;15.10;99.90;;;;;;5015324;28;20390;-85
2022/09/16 00:06:05;;;;;;;6.57;1.45;;;15.10;99.90;;;;;;5015214;28;20029;-83
2022/09/16 00:08:31;;;;;;;4.90;1.15;;;15.20;99.90;;;;;;5032765;28;20087;-83
2022/09/16 00:11:01;;;;;;;10.00;1.70;;;15.20;99.90;;;;;;5033013;28;20029;-86
2022/09/16 00:13:27;;;;;;;4.30;1.30;;;15.20;99.90;;;;;;5014981;28;20065;-85
2022/09/16 00:15:52;;;;;;;5.97;1.17;;;15.20;99.90;;;;;;5032710;28;20068;-85
2022/09/16 00:18:22;;;;;;;4.85;1.20;;;15.20;99.90;;;;;;5032806;28;20033;-85
2022/09/16 00:20:49;;;;;;;4.95;1.20;;;15.10;99.90;;;;;;5014745;28;20041;-85
2022/09/16 00:23:15;;;;;;;4.82;1.20;;;15.20;99.90;;;;;;5032664;28;20029;-85
2022/09/16 00:25:41;;;;;;;4.75;1.10;;;15.10;99.90;;;;;;5032551;28;20025;-85
2022/09/16 00:28:07;;;;;;;5.18;1.10;;;15.10;99.90;;;;;;5014972;28;20033;-86
2022/09/16 00:30:33;;;;;;;3.88;0.93;;;15.10;99.90;;;;;;5032422;28;20056;-85
2022/09/16 00:32:58;;;;;;;5.97;1.02;;;15.10;99.90;;;;;;5032371;28;20071;-85
2022/09/16 00:35:24;;;;;;;5.38;1.05;;;15.10;99.90;;;;;;5032366;28;20037;-85
2022/09/16 00:37:50;;;;;;;4.03;1.10;;;15.10;99.90;;;;;;5032270;28;20033;-85
2022/09/16 00:40:16;;;;;;;4.80;1.35;;;15.10;99.90;;;;;;5032232;28;20029;-85
2022/09/16 00:42:41;;;;;;;5.32;0.90;;;15.10;99.90;;;;;;5014478;28;20056;-85
2022/09/16 00:45:16;;;;;;;4.10;1.10;;;15.10;99.90;;;;;;5032270;28;20044;-85
2022/09/16 00:48:05;;;;;;;5.30;1.00;;;15.10;99.90;;;;;;5031971;28;20029;-85
2022/09/16 00:50:43;;;;;;;3.50;0.90;;;15.10;99.90;;;;;;5032129;28;20359;-86
2022/09/16 00:53:36;;;;;;;4.25;1.10;;;15.10;99.90;;;;;;5032105;28;20052;-85
2022/09/16 00:56:05;;;;;;;4.38;1.65;;;15.10;99.90;;;;;;5021181;28;20044;-85
2022/09/16 00:58:38;;;;;;;;;;;15.00;99.90;;;;;;5014741;28;20052;-86
2022/09/16 01:01:04;;;;;;;3.47;1.00;;;15.00;99.90;;;;;;5032016;28;19909;-85
2022/09/16 01:03:34;;;;;;;7.70;1.33;;;15.00;99.90;;;;;;5031931;28;20033;-85
2022/09/16 01:06:01;;;;;;;4.75;1.08;;;15.00;99.90;;;;;;5031836;28;20034;-86
2022/09/16 01:08:26;;;;;;;4.13;1.13;;;15.00;99.90;;;;;;5031940;28;20546;-86
2022/09/16 01:10:52;;;;;;;5.20;1.00;;;15.00;99.90;;;;;;5031455;28;20116;-85
2022/09/16 01:13:18;;;;;;;7.80;0.90;;;15.00;99.90;;;;;;5031546;28;20040;-85
2022/09/16 01:16:02;;;;;;;4.50;0.90;;;14.90;99.90;;;;;;5031741;28;20049;-85
2022/09/16 01:18:47;;;;;;;8.43;1.38;;;14.90;99.90;;;;;;5031703;28;20048;-85
2022/09/16 01:21:42;;;;;;;7.00;2.80;;;14.80;99.90;;;;;;5031633;28;20048;-85
2022/09/16 01:24:28;;;;;;;6.07;1.50;;;14.90;99.90;;;;;;5031551;28;20064;-86
2022/09/16 01:26:57;;;;;;;8.02;2.00;;;14.90;99.90;;;;;;5013816;28;20026;-86
2022/09/16 01:30:10;;;;;;;5.60;1.13;;;14.80;99.90;;;;;;5013717;28;20033;-85
2022/09/16 01:32:51;;;;;;;5.38;1.10;;;14.80;99.90;;;;;;5013812;28;20029;-85
2022/09/16 01:35:35;;;;;;;5.10;1.23;;;14.80;99.90;;;;;;5031515;28;20033;-85
2022/09/16 01:38:03;;;;;;;8.00;2.05;;;14.80;99.90;;;;;;5031234;28;20099;-85
2022/09/16 01:40:45;;;;;;;8.43;1.77;;;14.80;99.90;;;;;;5031188;28;20116;-85
2022/09/16 01:43:10;;;;;;;6.30;1.23;;;14.90;99.90;;;;;;5030675;28;20088;-85
2022/09/16 01:46:15;;;;;;;7.78;1.20;;;14.90;99.90;;;;;;5031283;28;20030;-85
2022/09/16 01:48:51;;;;;;;5.38;1.35;;;14.80;99.90;;;;;;4986831;28;20069;-86
2022/09/16 01:51:21;;;;;;;6.32;1.10;;;14.80;99.90;;;;;;4997247;28;20099;-86
2022/09/16 01:54:09;;;;;;;4.65;1.23;;;14.80;99.90;;;;;;4997055;28;20025;-85
2022/09/16 01:56:59;;;;;;;4.20;1.00;;;14.80;99.90;;;;;;5031196;28;20470;-85
2022/09/16 01:59:39;;;;;;;4.82;0.88;;;14.80;99.90;;;;;;5031096;28;20029;-85
2022/09/16 02:02:33;;;;;;;9.10;1.55;;;14.80;99.90;;;;;;5031067;28;20029;-85
2022/09/16 02:05:02;;;;;;;6.60;1.10;;;14.80;99.90;;;;;;4993550;28;20039;-85
2022/09/16 02:07:32;;;;;;;6.85;1.27;;;14.80;99.90;;;;;;5031219;28;20095;-85
2022/09/16 02:10:09;;;;;;;3.97;0.95;;;14.80;99.90;;;;;;5031026;28;20123;-85
2022/09/16 02:12:40;;;;;;;4.05;1.10;;;14.80;99.90;;;;;;5031060;28;20029;-85
2022/09/16 02:15:12;;;;;;;6.50;1.08;;;14.80;99.90;;;;;;5030921;28;20041;-85
2022/09/16 02:17:43;;;;;;;4.47;1.25;;;14.80;99.90;;;;;;5030610;28;20041;-85
2022/09/16 02:20:16;;;;;;;3.53;1.05;;;14.70;99.90;;;;;;5030846;28;20116;-85
2022/09/16 02:22:50;;;;;;;3.17;0.82;;;14.70;99.90;;;;;;5030974;28;20037;-85
2022/09/16 02:25:18;;;;;;;3.22;1.17;;;14.70;99.90;;;;;;5030905;28;20068;-85
2022/09/16 02:27:47;;;;;;;5.70;1.27;;;14.80;99.90;;;;;;4996676;28;20083;-85
2022/09/16 02:30:17;;;;;;;6.90;1.50;;;14.70;99.90;;;;;;5013228;28;20048;-85
2022/09/16 02:32:46;;;;;;;6.97;1.33;;;14.70;99.90;;;;;;5013120;28;20493;-85
2022/09/16 02:35:16;;;;;;;6.00;1.15;;;14.60;99.90;;;;;;5030713;28;20441;-85
2022/09/16 02:37:53;;;;;;;3.78;0.90;;;14.60;99.90;;;;;;5030679;28;20091;-85
2022/09/16 02:40:31;;;;;;;7.18;1.63;;;14.60;99.90;;;;;;5030556;28;20046;-85
2022/09/16 02:42:58;;;;;;;9.57;1.48;;;14.70;99.90;;;;;;5030697;28;20061;-85
2022/09/16 02:45:37;;;;;;;5.60;1.27;;;14.60;99.90;;;;;;5012948;28;20026;-85
2022/09/16 02:48:08;;;;;;;;;;;14.60;99.90;;;;;;5031283;28;20025;-85
2022/09/16 02:50:46;;;;;;;4.88;1.42;;;14.70;99.90;;;;;;5030501;28;19913;-85
2022/09/16 02:53:58;;;;;;;5.35;1.00;;;14.70;99.90;;;;;;5030498;28;20041;-85
2022/09/16 02:56:30;;;;;;;8.23;1.20;;;14.60;99.90;;;;;;5012492;28;20441;-85
2022/09/16 02:58:56;;;;;;;6.75;1.13;;;14.70;99.90;;;;;;5034127;28;20033;-85
2022/09/16 03:01:23;;;;;;;5.88;1.67;;;14.70;99.90;;;;;;5016292;28;20551;-85
2022/09/16 03:03:53;;;;;;;5.22;1.20;;;14.70;99.90;;;;;;5034204;28;20025;-85
2022/09/16 03:06:23;;;;;;;;;;;14.70;99.90;;;;;;5016860;28;20026;-85
2022/09/16 03:08:51;;;;;;;5.25;1.20;;;14.70;99.90;;;;;;4999985;28;19912;-85
2022/09/16 03:11:29;;;;;;;5.28;1.02;;;14.70;99.90;;;;;;5016516;28;20390;-85
2022/09/16 03:14:22;;;;;;;7.00;1.17;;;14.70;99.90;;;;;;5036414;23;20431;-69
2022/09/16 03:17:25;;;;;;;4.30;1.23;;;14.70;99.90;;;;;;5054423;28;20025;-71
2022/09/16 03:20:09;;;;;;;4.97;1.30;;;14.70;99.90;;;;;;5054137;28;20126;-69
2022/09/16 03:23:02;;;;;;;4.80;1.60;;;14.70;99.90;;;;;;5034488;28;20414;-69
2022/09/16 03:26:06;;;;;;;5.07;1.38;;;14.70;99.90;;;;;;5034504;28;20029;-71
2022/09/16 03:28:57;;;;;;;3.67;1.48;;;14.70;99.90;;;;;;5034332;28;20057;-69
2022/09/16 03:31:32;;;;;;;8.52;1.17;;;14.70;99.90;;;;;;5033943;28;20029;-69
2022/09/16 03:33:58;;;;;;;5.88;1.38;;;14.70;99.90;;;;;;5033867;28;20029;-69
2022/09/16 03:36:32;;;;;;;4.35;1.13;;;14.70;99.90;;;;;;5032415;28;20036;-71
2022/09/16 03:38:59;;;;;;;5.20;1.35;;;14.60;99.90;;;;;;5033451;28;20030;-69
2022/09/16 03:41:31;;;;;;;5.60;1.38;;;14.70;99.90;;;;;;5032475;28;20438;-71
2022/09/16 03:43:58;;;;;;;4.07;1.30;;;14.70;99.90;;;;;;5034229;28;20109;-72
2022/09/16 03:46:27;;;;;;;5.15;1.60;;;14.70;99.90;;;;;;5034146;28;20075;-71
2022/09/16 03:48:54;;;;;;;;;;;14.60;99.90;;;;;;5034032;28;20036;-70
2022/09/16 03:51:20;;;;;;;8.90;2.05;;;14.60;99.90;;;;;;5033102;28;20059;-72
2022/09/16 03:53:46;;;;;;;4.05;1.20;;;14.60;99.90;;;;;;5033222;28;20041;-70
2022/09/16 03:56:12;;;;;;;4.35;1.15;;;14.60;99.90;;;;;;5032959;28;20034;-72
2022/09/16 03:58:38;;;;;;;6.00;1.23;;;14.70;99.90;;;;;;5031644;28;20037;-72
2022/09/16 04:01:04;;;;;;;6.95;1.50;;;14.70;99.90;;;;;;5032853;28;20033;-72
2022/09/16 04:03:30;;;;;;;7.00;1.73;;;14.70;99.90;;;;;;5032898;28;20033;-72
2022/09/16 04:05:56;;;;;;;4.10;1.20;;;14.60;99.90;;;;;;5032289;28;20052;-72
2022/09/16 04:08:23;;;;;;;9.45;2.50;;;14.60;99.90;;;;;;5032885;28;20030;-72
2022/09/16 04:11:07;;;;;;;9.57;3.58;;;14.60;99.90;;;;;;5032685;28;20088;-72
2022/09/16 04:13:34;;;;;;;5.82;2.63;;;14.60;99.90;;;;;;5031338;28;20036;-72
2022/09/16 04:16:02;;;;;;;7.60;2.85;;;14.60;99.90;;;;;;5032695;28;20045;-70
2022/09/16 04:18:29;;;;;;;8.32;2.10;;;14.60;99.90;;;;;;5032782;28;20037;-74
2022/09/16 04:20:59;;;;;;;7.20;1.70;;;14.60;99.90;;;;;;5032619;28;20025;-70
2022/09/16 04:23:27;;;;;;;7.00;1.65;;;14.60;99.90;;;;;;5031466;28;20038;-72
2022/09/16 04:25:58;;;;;;;7.38;1.60;;;14.60;99.90;;;;;;5032495;28;20052;-69
2022/09/16 04:28:24;;;;;;;7.10;1.98;;;14.60;99.90;;;;;;5032476;28;20394;-72
2022/09/16 04:30:50;;;;;;;5.28;1.48;;;14.60;99.90;;;;;;5030974;28;20030;-73
2022/09/16 04:33:17;;;;;;;5.80;1.50;;;14.50;99.90;;;;;;5032361;28;20031;-72
2022/09/16 04:35:43;;;;;;;10.35;2.20;;;14.50;99.90;;;;;;5032338;28;20040;-69
2022/09/16 04:38:09;;;;;;;6.68;1.60;;;14.50;99.90;;;;;;5032518;28;20034;-70
2022/09/16 04:40:36;;;;;;;8.50;1.90;;;14.50;99.90;;;;;;5030821;28;20033;-72
2022/09/16 04:43:02;;;;;;;5.85;1.88;;;14.50;99.90;;;;;;5032231;28;20132;-72
2022/09/16 04:45:28;;;;;;;6.63;1.50;;;14.50;99.90;;;;;;5032307;28;20113;-72
2022/09/16 04:47:56;;;;;;;8.93;1.77;;;14.50;99.90;;;;;;5031933;28;20390;-69
2022/09/16 04:50:23;;;;;;;6.45;1.50;;;14.40;99.90;;;;;;5032324;28;20025;-69
2022/09/16 04:52:50;;;;;;;5.20;1.48;;;14.50;99.90;;;;;;5031963;28;20057;-70
2022/09/16 04:55:22;;;;;;;7.13;1.30;;;14.40;99.90;;;;;;5032215;28;20030;-70
2022/09/16 04:57:48;;;;;;;6.28;1.42;;;14.40;99.90;;;;;;5031997;28;20052;-70
2022/09/16 05:00:15;;;;;;;7.50;1.27;;;14.40;99.90;;;;;;5031697;28;20497;-70
2022/09/16 05:02:44;;;;;;;5.72;1.55;;;14.40;99.90;;;;;;5031805;28;20032;-70
2022/09/16 05:05:11;;;;;;;3.88;1.38;;;14.40;99.90;;;;;;5031850;28;20056;-70
2022/09/16 05:07:36;;;;;;;4.78;1.27;;;14.40;99.90;;;;;;5031758;28;20030;-70
2022/09/16 05:10:03;;;;;;;6.85;1.55;;;14.40;99.90;;;;;;5030538;28;20156;-70
2022/09/16 05:12:29;;;;;;;5.25;1.63;;;14.40;99.90;;;;;;5031551;28;20049;-70
2022/09/16 05:14:55;;;;;;;6.97;1.83;;;14.40;99.90;;;;;;5030317;28;20033;-70
2022/09/16 05:17:21;;;;;;;5.30;1.40;;;14.40;99.90;;;;;;5031252;28;20049;-70
2022/09/16 05:19:47;;;;;;;9.20;2.10;;;14.50;99.90;;;;;;5030948;28;20037;-70
2022/09/16 05:22:13;;;;;;;9.98;2.38;;;14.40;99.90;;;;;;5031373;28;20057;-70
2022/09/16 05:24:39;;;;;;;7.90;2.10;;;14.40;99.90;;;;;;5031413;28;20087;-70
2022/09/16 05:27:05;;;;;;;5.93;1.80;;;14.40;99.90;;;;;;5031674;28;20064;-70
2022/09/16 05:29:31;;;;;;;9.00;2.40;;;14.40;99.90;;;;;;5034781;28;20389;-71
2022/09/16 05:31:57;;;;;;;7.57;2.10;;;14.40;99.90;;;;;;5033958;28;20121;-72
2022/09/16 05:34:27;;;;;;;7.38;2.10;;;14.40;99.90;;;;;;5016460;28;20498;-71
2022/09/16 05:36:54;;;;;;;15.43;2.58;;;14.40;99.90;;;;;;5032548;28;20115;-72
2022/09/16 05:39:21;;;;;;;8.90;1.90;;;14.40;99.90;;;;;;5033431;28;20056;-71
2022/09/16 05:41:48;;;;;;;6.07;2.00;;;14.30;99.90;;;;;;5031568;28;20041;-71
2022/09/16 05:44:14;;;;;;;10.60;3.70;;;14.30;99.90;;;;;;5033433;28;20049;-71
2022/09/16 05:46:40;;;;;;;8.13;2.30;;;14.30;99.90;;;;;;5033288;28;20028;-71
2022/09/16 05:49:08;;;;;;;7.50;3.15;;;14.30;99.90;;;;;;5032854;28;20041;-72
2022/09/16 05:51:35;;;;;;;8.60;2.70;;;14.30;99.90;;;;;;5033069;28;20079;-72
2022/09/16 05:54:01;;;;;;;11.73;2.90;;;14.20;99.90;;;;;;5015757;28;20032;-71
2022/09/16 05:56:29;;;;;;;8.68;2.75;;;14.20;99.90;;;;;;5032361;28;20025;-72
2022/09/16 05:58:57;;;;;;;7.85;2.65;;;14.20;99.90;;;;;;5033530;28;20075;-71
2022/09/16 06:01:34;;;;;;;9.30;2.70;;;14.20;99.90;;;;;;5032270;28;20075;-71
2022/09/16 06:04:01;;;;;;;8.32;2.50;;;14.20;99.90;;;;;;5033091;28;20451;-72
2022/09/16 06:06:38;;;;;;;10.13;2.20;;;14.20;99.90;;;;;;5033352;28;20028;-72
2022/09/16 06:09:16;;;;;;;5.32;1.83;;;14.20;99.90;;;;;;5032972;28;20079;-72
2022/09/16 06:11:45;;;;;;;5.15;2.10;;;14.20;99.90;;;;;;5032676;28;20470;-72
2022/09/16 06:14:13;;;;;;;8.68;2.88;;;14.20;99.90;;;;;;5031264;28;20121;-71
2022/09/16 06:16:39;;;;;;;9.32;2.67;;;14.20;99.90;;;;;;5031704;28;20022;-72
2022/09/16 06:19:09;;;;;;;8.43;2.20;;;14.20;99.90;;;;;;5031618;28;20029;-72
2022/09/16 06:21:36;;;;;;;9.32;2.67;;;14.20;99.90;;;;;;5032896;28;20390;-72
2022/09/16 06:24:07;;;;;;;9.02;2.33;;;14.20;99.90;;;;;;5033082;28;20065;-72
2022/09/16 06:26:34;;;;;;;8.73;2.17;;;14.20;99.90;;;;;;5033109;28;20428;-72
2022/09/16 06:29:00;;;;;;;8.60;2.92;;;14.20;99.90;;;;;;5032675;28;20026;-71
2022/09/16 06:31:27;;;;;;;12.00;5.85;;;14.20;99.90;;;;;;5035939;28;20032;-71
2022/09/16 06:33:54;;;;;;;9.57;3.47;;;14.20;99.90;;;;;;5036407;28;20021;-72
2022/09/16 06:36:38;;;;;;;9.13;2.72;;;14.20;99.90;;;;;;5036576;28;20079;-72
2022/09/16 06:39:05;;;;;;;6.55;2.45;;;14.30;99.90;;;;;;5036757;28;20226;-71
2022/09/16 06:41:33;;;;;;;8.55;3.78;;;14.30;99.90;;;;;;5035806;28;20061;-71
2022/09/16 06:43:59;;;;;;;7.78;2.85;;;14.30;99.90;;;;;;5019744;28;20053;-71
2022/09/16 06:46:27;;;;;;;6.00;2.67;;;14.30;99.90;;;;;;5035984;28;20395;-71
2022/09/16 06:48:56;;;;;;;8.32;3.20;;;14.30;99.90;;;;;;5035952;28;20486;-72
2022/09/16 06:51:24;;;;;;;12.35;2.97;;;14.30;99.90;;;;;;5035561;28;20041;-71
2022/09/16 06:53:51;;;;;;;10.48;3.15;;;14.40;99.90;;;;;;5034384;28;20491;-71
2022/09/16 06:56:19;;;;;;;6.95;2.75;;;14.40;99.90;;;;;;5034062;28;20044;-70
2022/09/16 06:58:47;;;;;;;7.63;3.63;;;14.40;99.90;;;;;;5033882;28;20046;-71
2022/09/16 07:01:25;;;;;;;11.15;3.80;;;14.50;99.90;;;;;;5034087;28;20497;-71
2022/09/16 07:03:52;;;;;;;9.45;3.40;;;14.40;99.90;;;;;;5034039;28;20033;-71
2022/09/16 07:06:19;;;;;;;12.18;4.10;;;14.40;99.90;;;;;;5032667;28;20452;-71
2022/09/16 07:08:46;;;;;;;15.00;4.72;;;14.50;99.90;;;;;;5035980;28;20131;-72
2022/09/16 07:11:13;;;;;;;10.88;3.95;;;14.50;99.90;;;;;;5035656;28;20118;-72
2022/09/16 07:13:39;;;;;;;8.55;3.45;;;14.50;99.90;;;;;;5018388;28;20034;-71
2022/09/16 07:16:09;;;;;;;10.43;2.95;;;14.50;99.90;;;;;;5035277;28;20034;-72
2022/09/16 07:18:34;;;;;;;;;;;14.60;99.90;;;;;;5034024;28;20036;-72
2022/09/16 07:21:06;;;;;;;8.70;2.97;;;14.50;99.90;;;;;;5033736;28;19908;-72
2022/09/16 07:23:34;;;;;;;13.77;3.40;;;14.60;99.90;;;;;;5033714;28;20029;-72
2022/09/16 07:26:05;;;;;;;10.32;3.28;;;14.60;99.90;;;;;;5033550;28;20108;-71
2022/09/16 07:28:32;;;;;;;10.75;3.55;;;14.60;99.90;;;;;;5033672;28;20378;-72
2022/09/16 07:31:07;;;;;;;10.85;3.70;;;14.60;99.90;;;;;;5031972;28;20128;-71
2022/09/16 07:33:38;;;;;;;11.20;4.65;;;14.60;99.90;;;;;;5033629;28;20033;-72
2022/09/16 07:36:06;;;;;;;9.20;3.80;;;14.60;99.90;;;;;;5033286;28;20033;-72
2022/09/16 07:38:32;;;;;;;10.93;3.35;;;14.70;99.90;;;;;;5033534;28;20108;-72
2022/09/16 07:41:18;;;;;;;8.82;3.70;;;14.70;99.90;;;;;;5032368;28;20479;-72
2022/09/16 07:43:45;;;;;;;9.00;2.70;;;14.70;99.90;;;;;;5033531;28;20111;-72
2022/09/16 07:46:12;;;;;;;7.10;2.10;;;14.70;99.90;;;;;;5033287;28;20021;-72
2022/09/16 07:48:39;;;;;;;5.80;2.83;;;14.70;99.90;;;;;;5033050;28;20036;-72
2022/09/16 07:51:11;;;;;;;5.78;2.15;;;14.70;99.90;;;;;;5031937;28;20032;-71
2022/09/16 07:53:38;;;;;;;4.07;2.00;;;14.70;99.90;;;;;;5033167;28;20033;-72
2022/09/16 07:56:11;;;;;;;6.70;3.03;;;14.70;99.90;;;;;;5033020;28;20053;-72
2022/09/16 07:58:38;;;;;;;11.70;4.00;;;14.70;99.90;;;;;;5032973;28;20033;-72
2022/09/16 08:01:06;;;;;;;7.78;3.80;;;14.70;99.90;;;;;;5031490;28;20043;-72
2022/09/16 08:03:37;;;;;;;7.30;2.28;;;14.80;99.90;;;;;;5032955;28;20036;-72
2022/09/16 08:06:06;;;;;;;9.48;2.40;;;14.80;99.90;;;;;;5031602;28;20037;-72
2022/09/16 08:08:32;;;;;;;9.50;2.53;;;14.80;99.90;;;;;;5031475;28;20517;-71
2022/09/16 08:11:00;;;;;;;5.75;1.63;;;14.80;99.90;;;;;;5032692;28;20117;-71
2022/09/16 08:13:28;;;;;;;5.93;1.90;;;14.80;99.90;;;;;;5032615;28;20025;-71
2022/09/16 08:15:54;;;;;;;7.85;1.90;;;14.90;99.90;;;;;;5032693;28;20514;-71
2022/09/16 08:18:20;;;;;;;3.03;1.45;;;15.00;99.90;;;;;;5033017;28;20394;-71
2022/09/16 08:20:46;;;;;;;3.97;1.33;;;15.00;99.90;;;;;;5032472;28;20087;-72
2022/09/16 08:23:13;;;;;;;3.38;1.30;;;15.00;99.90;;;;;;5032566;28;20429;-72
2022/09/16 08:25:41;;;;;;;6.57;1.80;;;15.00;99.90;;;;;;5031257;28;20108;-72
2022/09/16 08:28:16;;;;;;;5.28;1.58;;;15.00;99.90;;;;;;5032969;28;20079;-71
2022/09/16 08:30:42;;;;;;;4.85;1.20;;;15.10;99.90;;;;;;5032105;28;20025;-71
2022/09/16 08:33:09;;;;;;;7.25;1.65;;;15.10;99.90;;;;;;5032441;28;20371;-71
2022/09/16 08:35:35;;;;;;;5.45;1.30;;;15.10;99.90;;;;;;5032518;28;20059;-71
2022/09/16 08:38:01;;;;;;;5.53;1.20;;;15.20;99.90;;;;;;5032368;28;20445;-72
2022/09/16 08:40:33;;;;;;;4.38;1.20;;;15.20;99.90;;;;;;5030722;28;20041;-72
2022/09/16 08:43:26;;;;;;;7.55;1.58;;;15.20;99.90;;;;;;5032489;28;20037;-71
2022/09/16 08:46:10;;;;;;;6.13;2.00;;;15.20;99.90;;;;;;5031930;28;20040;-72
2022/09/16 08:49:16;;;;;;;4.53;1.65;;;15.20;99.90;;;;;;5014248;28;20072;-71
2022/09/16 08:51:44;;;;;;;7.90;2.33;;;15.30;99.90;;;;;;5030612;28;20044;-71
2022/09/16 08:54:17;;;;;;;7.10;1.77;;;15.30;99.90;;;;;;5030701;28;20025;-72
2022/09/16 08:56:45;;;;;;;7.53;1.83;;;15.40;99.90;;;;;;5030698;28;20029;-72
2022/09/16 08:59:21;;;;;;;6.15;1.52;;;15.40;99.90;;;;;;5031800;28;20040;-72
2022/09/16 09:02:05;;;;;;;6.60;1.73;;;15.50;99.90;;;;;;5031694;28;20029;-71
2022/09/16 09:04:31;;;;;;;7.05;1.80;;;15.50;99.90;;;;;;5031825;28;20102;-72
2022/09/16 09:07:26;;;;;;;5.78;1.63;;;15.60;99.90;;;;;;5031709;28;20047;-71
2022/09/16 09:10:23;;;;;;;7.00;2.40;;;15.60;99.90;;;;;;5031526;28;20029;-71
2022/09/16 09:13:12;;;;;;;4.30;1.08;;;15.60;99.40;;;;;;5030574;28;20067;-71
2022/09/16 09:15:41;;;;;;;5.70;1.40;;;15.60;99.30;;;;;;5055161;22;20136;-84
2022/09/16 09:18:33;;;;;;;5.38;1.55;;;15.60;99.50;;;;;;5013685;28;20029;-84
2022/09/16 09:21:08;;;;;;;6.75;1.75;;;15.50;99.90;;;;;;5031362;28;20037;-84
2022/09/16 09:23:37;;;;;;;5.15;1.02;;;15.50;99.60;;;;;;5013443;28;20049;-84
2022/09/16 09:26:23;;;;;;;4.57;1.50;;;15.60;99.30;;;;;;5031217;28;20040;-84
2022/09/16 09:28:58;;;;;;;7.82;1.42;;;15.70;98.40;;;;;;5030934;28;20030;-84
2022/09/16 09:31:29;;;;;;;6.03;1.10;;;15.80;98.40;;;;;;5013421;28;20040;-83
2022/09/16 09:34:00;;;;;;;6.80;1.17;;;15.80;98.00;;;;;;5031114;28;20500;-84
2022/09/16 09:36:39;;;;;;;6.72;1.40;;;15.90;97.70;;;;;;5031006;28;20540;-84
2022/09/16 09:39:29;;;;;;;6.60;1.13;;;15.90;97.50;;;;;;5030931;28;20032;-84
2022/09/16 09:42:12;;;;;;;5.85;1.05;;;15.90;97.70;;;;;;5030878;28;20512;-84
2022/09/16 09:44:44;;;;;;;5.25;1.00;;;15.90;96.20;;;;;;5030899;28;20116;-84
2022/09/16 09:47:26;;;;;;;5.32;0.77;;;15.90;95.70;;;;;;5013138;28;20057;-84
2022/09/16 09:50:01;;;;;;;5.22;0.85;;;15.90;95.30;;;;;;5030631;28;20432;-84
2022/09/16 09:52:43;;;;;;;4.88;0.70;;;15.80;95.50;;;;;;5030897;28;20036;-84
2022/09/16 09:55:18;;;;;;;5.20;1.10;;;15.90;95.70;;;;;;5013091;28;20095;-83
2022/09/16 09:58:20;;;;;;;7.13;2.00;;;15.90;95.60;;;;;;5030729;28;20037;-84
2022/09/16 10:00:46;;;;;;;7.03;2.28;;;16.00;96.50;;;;;;5030830;28;20080;-84
2022/09/16 10:03:16;;;;;;;8.02;2.63;;;16.00;95.60;;;;;;5030686;28;20080;-84
2022/09/16 10:05:44;;;;;;;4.55;1.75;;;16.10;95.40;;;;;;5029997;28;20547;-83
2022/09/16 10:08:28;;;;;;;5.38;1.33;;;16.20;95.00;;;;;;5030685;28;20044;-84
2022/09/16 10:10:57;;;;;;;5.50;1.08;;;16.20;94.40;;;;;;5013104;28;20033;-84
2022/09/16 10:13:24;;;;;;;6.10;1.50;;;16.20;94.40;;;;;;5030968;28;20109;-84
2022/09/16 10:15:53;;;;;;;5.82;1.23;;;16.20;94.80;;;;;;5030408;28;20029;-83
2022/09/16 10:18:29;;;;;;;4.43;0.80;;;16.20;93.10;;;;;;5030675;28;20052;-84
2022/09/16 10:21:09;;;;;;;4.15;0.90;;;16.20;92.70;;;;;;5012516;28;20052;-84
2022/09/16 10:23:35;;;;;;;5.05;0.95;;;16.20;93.10;;;;;;5030712;28;20091;-84
2022/09/16 10:26:07;;;;;;;4.63;0.95;;;16.20;93.40;;;;;;5030435;28;20021;-84
2022/09/16 10:28:33;;;;;;;3.97;1.08;;;16.10;93.70;;;;;;5030348;28;20029;-84
2022/09/16 10:31:00;;;;;;;8.45;1.33;;;16.10;94.00;;;;;;5030424;28;20030;-84
2022/09/16 10:33:42;;;;;;;5.72;1.20;;;16.10;94.30;;;;;;5030405;28;20029;-84
2022/09/16 10:36:16;;;;;;;5.97;1.52;;;16.10;94.70;;;;;;5030394;28;20674;-84
2022/09/16 10:38:45;;;;;;;4.93;1.23;;;16.10;94.80;;;;;;5030234;28;20029;-84
2022/09/16 10:41:18;;;;;;;7.22;2.13;;;16.00;94.30;;;;;;5030379;28;20108;-84
2022/09/16 10:43:55;;;;;;;6.22;1.50;;;16.10;93.70;;;;;;5030279;28;20033;-84
2022/09/16 10:46:21;;;;;;;5.72;1.73;;;16.10;93.70;;;;;;5012648;28;20029;-84
2022/09/16 10:48:48;;;;;;;5.80;1.60;;;16.10;93.60;;;;;;5030177;28;20044;-84
2022/09/16 10:51:25;;;;;;;6.05;1.65;;;16.10;93.60;;;;;;5030161;28;20103;-84
2022/09/16 10:53:57;;;;;;;6.47;1.65;;;16.10;93.70;;;;;;5012437;28;20037;-84
2022/09/16 10:56:44;;;;;;;6.82;1.58;;;16.10;93.40;;;;;;5029994;28;20033;-84
2022/09/16 10:59:12;;;;;;;5.45;1.30;;;16.10;93.30;;;;;;5030020;28;20493;-84
2022/09/16 11:01:43;;;;;;;4.63;0.90;;;16.10;92.80;;;;;;5030658;28;20021;-83
2022/09/16 11:04:27;;;;;;;3.33;1.30;;;16.20;92.80;;;;;;5012487;28;20116;-84
2022/09/16 11:06:56;;;;;;;4.35;1.48;;;16.20;92.80;;;;;;5029972;28;20050;-84
2022/09/16 11:09:42;;;;;;;7.22;1.50;;;16.30;93.20;;;;;;5012370;28;20040;-84
2022/09/16 11:12:57;;;;;;;7.03;1.30;;;16.40;93.30;;;;;;4989460;28;20049;-84
2022/09/16 11:15:54;;;;;;;2.60;0.60;;;16.30;93.80;;;;;;4949405;28;20074;-84
2022/09/16 11:18:54;;;;;;;3.45;0.90;;;16.30;93.20;;;;;;5016161;28;20029;-84
2022/09/16 11:21:55;;;;;;;5.10;1.20;;;16.20;93.10;;;;;;5015701;28;20498;-84
2022/09/16 11:24:47;;;;;;;5.95;1.40;;;15.90;98.40;;;;;;5015749;28;20049;-83
2022/09/16 11:27:14;;;;;;;5.20;1.35;;;15.50;99.90;;;;;;5015843;28;20029;-84
2022/09/16 11:30:11;;;;;;;5.85;1.85;;;15.20;99.90;;;;;;5015349;28;20071;-84
2022/09/16 11:33:04;;;;;;;5.32;2.17;;;15.00;99.90;;;;;;5032900;28;20037;-84
2022/09/16 11:36:04;;;;;;;7.40;1.77;;;14.80;99.90;;;;;;5033355;28;20120;-84
2022/09/16 11:39:07;;;;;;;3.53;1.50;;;14.80;99.90;;;;;;5033505;28;20276;-84
2022/09/16 11:41:41;;;;;;;3.55;1.13;;;14.80;99.90;;;;;;5033479;28;20453;-84
2022/09/16 11:44:31;;;;;;;2.83;1.55;;;14.80;99.90;;;;;;5015536;28;20116;-84
2022/09/16 11:47:15;;;;;;;3.40;1.10;;;14.90;99.90;;;;;;5032974;28;20026;-83
2022/09/16 11:49:59;;;;;;;2.00;0.90;;;15.00;99.90;;;;;;5032949;28;20109;-83
2022/09/16 11:52:33;;;;;;;3.88;0.82;;;15.00;99.90;;;;;;5015396;28;20037;-84
2022/09/16 11:55:25;;;;;;;2.28;0.68;;;15.00;99.90;;;;;;5033180;28;20347;-83
2022/09/16 11:58:04;;;;;;;5.47;0.90;;;15.10;99.90;;;;;;5032660;28;20030;-83
2022/09/16 12:00:33;;;;;;;3.58;0.80;;;15.20;99.90;;;;;;5032753;28;20025;-84
2022/09/16 12:03:24;;;;;;;5.25;0.95;;;15.20;99.90;;;;;;5032616;28;20049;-84
2022/09/16 12:06:03;;;;;;;7.60;1.35;;;15.20;99.90;;;;;;5032889;28;20052;-85
2022/09/16 12:08:53;;;;;;;6.97;1.42;;;15.20;99.90;;;;;;5032764;28;20029;-84
2022/09/16 12:11:31;;;;;;;5.43;1.08;;;15.20;99.90;;;;;;5032488;28;20511;-85
2022/09/16 12:14:25;;;;;;;4.13;0.90;;;15.20;99.90;;;;;;5032607;28;20029;-84
2022/09/16 12:17:17;;;;;;;2.60;0.60;;;15.30;99.90;;;;;;5014842;28;20033;-84
2022/09/16 12:20:12;;;;;;;5.10;1.50;;;15.40;99.90;;;;;;5007894;28;20230;-84
2022/09/16 12:22:47;;;;;;;3.80;0.95;;;15.50;99.90;;;;;;4929628;28;20389;-85
2022/09/16 12:25:27;;;;;;;5.07;1.60;;;15.50;99.90;;;;;;4998262;28;20399;-84
2022/09/16 12:28:23;;;;;;;2.20;0.90;;;15.50;99.90;;;;;;5014170;28;20044;-84
2022/09/16 12:31:05;;;;;;;3.53;0.93;;;15.60;99.90;;;;;;5032468;28;20284;-84
2022/09/16 12:33:37;;;;;;;4.80;0.90;;;15.80;99.80;;;;;;5032440;28;20033;-85
2022/09/16 12:36:08;;;;;;;4.47;0.75;;;15.90;99.30;;;;;;5032007;28;20573;-84
2022/09/16 12:38:34;;;;;;;3.13;0.80;;;16.00;99.30;;;;;;5031953;28;20064;-84
2022/09/16 12:41:21;;;;;;;3.20;0.82;;;16.00;98.80;;;;;;5032399;28;20037;-84
2022/09/16 12:44:21;;;;;;;3.50;0.70;;;16.00;98.80;;;;;;5030904;28;20038;-84
2022/09/16 12:47:08;;;;;;;3.92;0.85;;;16.00;97.90;;;;;;5031792;28;20029;-84
2022/09/16 12:49:59;;;;;;;7.45;1.40;;;15.90;98.40;;;;;;5013992;28;20494;-84
2022/09/16 12:52:35;;;;;;;4.95;1.05;;;16.00;98.30;;;;;;5031854;28;20108;-84
2022/09/16 12:55:42;;;;;;;5.05;0.98;;;15.90;98.30;;;;;;5014117;28;20390;-85
2022/09/16 12:58:27;;;;;;;3.15;1.60;;;16.00;97.90;;;;;;5032232;28;20029;-84
2022/09/16 13:01:04;;;;;;;5.63;1.48;;;15.90;98.20;;;;;;5013887;28;20040;-85
2022/09/16 13:03:32;;;;;;;2.45;0.90;;;15.90;98.30;;;;;;5013916;28;20112;-84
2022/09/16 13:06:04;;;;;;;4.72;0.68;;;16.00;98.30;;;;;;4997383;28;20026;-84
2022/09/16 13:08:33;;;;;;;2.75;0.90;;;16.00;97.60;;;;;;5013841;28;20030;-85
2022/09/16 13:11:02;;;;;;;4.90;1.00;;;16.10;97.60;;;;;;5031488;28;20091;-85
2022/09/16 13:13:33;;;;;;;;;;;16.20;98.00;;;;;;5014562;28;20055;-86
2022/09/16 13:16:01;;;;;;;2.83;0.75;;;16.20;98.10;;;;;;5031350;28;19963;-85
2022/09/16 13:18:45;;;;;;;2.97;0.80;;;16.30;97.60;;;;;;5013830;28;20459;-85
2022/09/16 13:21:22;;;;;;;3.88;1.25;;;16.30;97.80;;;;;;5013581;28;20029;-85
2022/09/16 13:23:59;;;;;;;3.78;0.70;;;16.30;97.80;;;;;;5031241;28;20053;-85